Aeroporto :
LOGIN :

Iscrizione | Disclaimer

   EN    FR    IT 

 










Sommario :    VFR   VFR Marginale   IFR   IFR Intensivo   IFR Molto Intensivo
Visibilità : 
Base nubi : 
>= 8 km
>= 3000ft
5 / 8 km
1000 / 3000 ft
1500m / 5 km
500 / 1000 ft
800 / 1500m
200 / 500 ft
< 800m
< 200 ft
Simboli :   Temporali  Nebbia  Neve Forte  Precipitazioni Forti  Vento > 20 kt
SIGMETs :   Varie  Temporali  Ghiacco  Turbolenza  Onda orograficha  Ceneri Vulcaniche






- Altitudine del aeroporto : 510 ft


LJCE - Cerklje

ULTIMO METAR :
  • 211830Z 00000KT 0200 FG VV002 08/08 Q1013 RMK RED

METARs OBSOLETI :
  • 211800Z VRB02KT 0200 FG VV002 08/08 Q1013 RMK RED
  • 211730Z 26002KT 0200 FG VV002 09/08 Q1013 RMK RED
  • 211700Z 00000KT 0800 FG BKN003 OVC070 09/09 Q1013 RMK AMB
  • 211630Z 00000KT 1200 R09/P2000N BR SCT003 OVC070 09/09 Q1013 RMK AMB
  • 211600Z 25002KT 1500 BR FEW003 OVC070 09/09 Q1013 RMK AMB

TAF AMD TAF LJCE
Valido dal 21 a 18 ore il 22 a 03 ore UTC


211816Z 2118/2203 VRB02KT 1500 BCFG BR SCT003 BKN075
BECMG 2118/2120 0200 FG VV002



MetMap, La meteo Aeronautica in un colpo d'occhio ! - Copyright ORBIFLY Dicembre 2007 - Disclaimer

ORBIFLY MET'MAP TEAM :

Programmazione e sviluppo : Alexandra Zaïnal
Concezione e sviluppo : Baudouin d'Aumeries
Co-Programmazione e sviluppo : Marc-Olivier Méhu
Supporto tecnico e logistico : Manuel Goepfert
Aiuto per la traduzione : Arnaldo La Scala

Contatto : metmap@orbifly.com




FONTI E CREDITI :

   NOAA